Time;durP1;ratioP1;P1;durP2;ratioP2;P2;SDS_P1;SDS_P2;PMS_P1;PMS_P2;Temp;Humidity;BMP_temperature;BMP_pressure;BME280_temperature;BME280_humidity;BME280_pressure;Samples;Min_cycle;Max_cycle;Signal;HPM_P1;HPM_P2
2022/09/10 00:00:36;;;;;;;18.50;7.90;;;;;;;12.41;100.00;101105.81;5007229;28;20033;-74
2022/09/10 00:03:02;;;;;;;11.57;6.75;;;;;;;12.17;100.00;101096.91;4992224;28;20031;-74
2022/09/10 00:05:28;;;;;;;15.95;7.78;;;;;;;12.06;100.00;101090.03;5007369;28;20030;-74
2022/09/10 00:07:54;;;;;;;15.65;7.15;;;;;;;12.07;100.00;101096.28;5004610;28;20035;-75
2022/09/10 00:10:20;;;;;;;17.52;7.97;;;;;;;12.09;100.00;101099.63;5008117;28;20064;-75
2022/09/10 00:12:47;;;;;;;22.10;7.50;;;;;;;12.01;100.00;101097.84;5011941;28;20056;-75
2022/09/10 00:15:14;;;;;;;15.27;6.93;;;;;;;11.93;100.00;101092.47;4991804;28;20037;-75
2022/09/10 00:17:40;;;;;;;17.80;7.00;;;;;;;11.87;100.00;101094.00;4979629;28;20060;-75
2022/09/10 00:20:06;;;;;;;14.23;7.18;;;;;;;11.76;100.00;101083.59;5002004;28;20591;-77
2022/09/10 00:22:33;;;;;;;16.58;7.05;;;;;;;11.72;100.00;101094.91;4993148;28;20069;-77
2022/09/10 00:24:59;;;;;;;13.27;6.60;;;;;;;11.65;100.00;101081.31;4990451;28;20030;-75
2022/09/10 00:27:28;;;;;;;13.43;5.97;;;;;;;11.63;100.00;101086.03;5009889;28;20041;-75
2022/09/10 00:29:54;;;;;;;12.30;5.90;;;;;;;11.54;100.00;101095.16;4970032;28;20112;-76
2022/09/10 00:32:20;;;;;;;9.80;6.18;;;;;;;11.38;100.00;101096.88;4992944;28;20075;-75
2022/09/10 00:34:47;;;;;;;19.60;8.05;;;;;;;11.31;100.00;101100.44;4989193;28;20523;-76
2022/09/10 00:37:13;;;;;;;19.58;7.55;;;;;;;11.35;100.00;101096.38;5006742;28;20045;-77
2022/09/10 00:39:39;;;;;;;19.80;8.50;;;;;;;11.69;100.00;101112.25;4990165;28;20060;-76
2022/09/10 00:42:05;;;;;;;22.75;10.65;;;;;;;12.07;100.00;101110.59;4989996;28;20038;-76
2022/09/10 00:44:40;;;;;;;25.75;10.25;;;;;;;12.37;100.00;101113.44;4976826;28;20040;-76
2022/09/10 00:47:28;;;;;;;23.98;10.40;;;;;;;12.56;100.00;101112.13;5008244;28;20030;-75
2022/09/10 00:50:10;;;;;;;25.85;10.57;;;;;;;12.64;100.00;101103.97;4988457;28;20117;-75
2022/09/10 00:52:35;;;;;;;23.05;9.00;;;;;;;12.64;100.00;101097.75;5002937;28;20396;-73
2022/09/10 00:55:11;;;;;;;27.65;10.55;;;;;;;12.74;100.00;101109.97;5004412;28;20480;-75
2022/09/10 00:57:37;;;;;;;24.58;9.90;;;;;;;12.79;100.00;101117.50;5005132;28;20030;-75
2022/09/10 01:00:07;;;;;;;22.33;9.85;;;;;;;12.81;100.00;101107.38;4986676;28;20038;-75
2022/09/10 01:02:33;;;;;;;24.63;10.85;;;;;;;12.81;100.00;101093.91;5001254;28;20432;-74
2022/09/10 01:04:59;;;;;;;27.77;11.40;;;;;;;12.89;100.00;101092.97;5009140;28;20041;-76
2022/09/10 01:07:29;;;;;;;22.73;10.15;;;;;;;12.94;100.00;101098.69;4989708;28;20042;-75
2022/09/10 01:09:57;;;;;;;22.52;10.98;;;;;;;12.94;100.00;101091.41;4977462;28;20033;-77
2022/09/10 01:12:30;;;;;;;20.98;9.32;;;;;;;13.04;100.00;101109.19;4992429;28;20033;-76
2022/09/10 01:15:16;;;;;;;23.02;9.63;;;;;;;13.07;100.00;101103.41;5008847;28;20044;-74
2022/09/10 01:17:48;;;;;;;23.75;9.40;;;;;;;13.15;100.00;101114.13;5019663;28;20077;-73
2022/09/10 01:20:34;;;;;;;19.88;8.85;;;;;;;13.15;100.00;101109.59;5008430;28;20385;-76
2022/09/10 01:23:20;;;;;;;21.83;9.23;;;;;;;13.13;100.00;101114.34;5006035;28;20041;-73
2022/09/10 01:26:12;;;;;;;21.02;9.55;;;;;;;13.13;100.00;101106.25;4986184;28;20080;-74
2022/09/10 01:28:50;;;;;;;18.25;7.93;;;;;;;13.16;100.00;101123.94;4982435;28;20033;-74
2022/09/10 01:31:30;;;;;;;22.40;9.32;;;;;;;13.14;100.00;101124.09;5004904;28;20067;-76
2022/09/10 01:34:04;;;;;;;25.50;11.20;;;;;;;13.14;100.00;101129.50;4970524;28;20543;-73
2022/09/10 01:36:33;;;;;;;20.50;9.63;;;;;;;13.16;100.00;101127.47;4983478;28;20385;-74
2022/09/10 01:38:59;;;;;;;20.27;9.10;;;;;;;13.28;100.00;101122.47;5009001;28;20058;-74
2022/09/10 01:41:26;;;;;;;25.77;10.13;;;;;;;13.28;100.00;101121.63;5003190;28;20365;-74
2022/09/10 01:43:52;;;;;;;22.42;9.68;;;;;;;13.25;100.00;101109.31;4993140;28;20391;-74
2022/09/10 01:46:33;;;;;;;22.13;9.88;;;;;;;13.30;100.00;101120.44;4971405;28;20042;-75
2022/09/10 01:49:05;;;;;;;19.90;9.30;;;;;;;13.28;100.00;101121.63;4989998;28;20042;-76
2022/09/10 01:51:58;;;;;;;24.60;9.60;;;;;;;13.25;100.00;101109.31;4986905;28;20021;-76
2022/09/10 01:54:44;;;;;;;23.23;8.55;;;;;;;13.24;100.00;101112.22;5006387;28;20034;-73
2022/09/10 01:57:54;;;;;;;26.88;9.45;;;;;;;13.12;100.00;101111.81;4988740;28;20155;-73
2022/09/10 02:00:21;;;;;;;20.80;9.00;;;;;;;13.03;100.00;101113.75;4999909;28;20036;-74
2022/09/10 02:02:52;;;;;;;20.27;8.70;;;;;;;12.87;100.00;101097.72;5007329;28;20038;-75
2022/09/10 02:05:22;;;;;;;23.30;8.60;;;;;;;12.73;100.00;101094.81;5008113;28;20531;-75
2022/09/10 02:07:51;;;;;;;18.92;9.30;;;;;;;12.73;100.00;101102.06;4989016;28;20034;-75
2022/09/10 02:10:17;;;;;;;25.05;9.13;;;;;;;12.69;100.00;101098.88;4988467;28;20046;-77
2022/09/10 02:12:44;;;;;;;19.15;9.23;;;;;;;12.69;100.00;101104.25;5001264;28;20120;-74
2022/09/10 02:15:10;;;;;;;25.23;9.23;;;;;;;12.74;100.00;101106.44;5003601;28;20030;-74
2022/09/10 02:17:37;;;;;;;19.38;8.68;;;;;;;12.80;100.00;101104.84;4990250;28;20606;-75
2022/09/10 02:20:06;;;;;;;19.27;9.05;;;;;;;12.93;100.00;101107.78;4970215;28;20042;-75
2022/09/10 02:22:35;;;;;;;21.55;8.15;;;;;;;13.05;100.00;101109.03;5002906;28;20053;-74
2022/09/10 02:25:01;;;;;;;21.52;9.15;;;;;;;13.09;100.00;101099.50;5002018;28;20417;-74
2022/09/10 02:27:28;;;;;;;21.90;9.60;;;;;;;13.09;100.00;101102.22;5007446;28;20076;-76
2022/09/10 02:29:58;;;;;;;19.42;9.00;;;;;;;13.12;100.00;101103.72;5000087;28;20370;-76
2022/09/10 02:32:24;;;;;;;19.50;8.98;;;;;;;13.12;100.00;101101.84;4992145;28;20507;-75
2022/09/10 02:34:49;;;;;;;21.35;9.68;;;;;;;13.16;100.00;101094.22;4982347;28;20038;-75
2022/09/10 02:37:15;;;;;;;20.10;9.45;;;;;;;13.15;100.00;101088.00;5009153;28;20057;-73
2022/09/10 02:39:42;;;;;;;23.77;9.65;;;;;;;13.20;100.00;101079.31;4967790;28;20052;-75
2022/09/10 02:42:08;;;;;;;31.50;11.43;;;;;;;13.25;100.00;101093.09;4991314;28;20042;-75
2022/09/10 02:44:33;;;;;;;19.63;9.57;;;;;;;13.27;100.00;101087.56;4990629;28;20468;-76
2022/09/10 02:46:59;;;;;;;19.85;9.15;;;;;;;13.34;100.00;101093.91;5006604;28;20045;-75
2022/09/10 02:49:25;;;;;;;21.45;9.52;;;;;;;13.35;100.00;101088.31;4995298;28;20471;-76
2022/09/10 02:51:50;;;;;;;22.48;9.18;;;;;;;13.35;100.00;101082.91;4974265;28;20111;-75
2022/09/10 02:54:35;;;;;;;25.60;11.07;;;;;;;13.41;100.00;101084.03;5010617;28;20037;-76
2022/09/10 02:57:00;;;;;;;21.70;9.95;;;;;;;13.44;100.00;101089.03;4976333;28;20471;-74
2022/09/10 02:59:27;;;;;;;20.17;9.85;;;;;;;13.47;100.00;101094.09;4989406;28;20120;-75
2022/09/10 03:01:53;;;;;;;20.42;10.15;;;;;;;13.46;100.00;101094.28;4977344;28;20049;-75
2022/09/10 03:04:19;;;;;;;29.65;11.15;;;;;;;13.48;100.00;101095.75;4975675;28;20488;-74
2022/09/10 03:06:45;;;;;;;21.42;9.85;;;;;;;13.48;100.00;101106.56;4987651;28;20146;-75
2022/09/10 03:09:11;;;;;;;26.83;10.50;;;;;;;13.47;100.00;101094.09;4988912;28;20064;-76
2022/09/10 03:11:39;;;;;;;22.50;10.25;;;;;;;13.48;100.00;101108.44;5009511;28;20415;-75
2022/09/10 03:14:07;;;;;;;27.90;10.30;;;;;;;13.52;100.00;101096.22;4994132;28;20514;-75
2022/09/10 03:16:32;;;;;;;25.70;10.25;;;;;;;13.58;100.00;101103.59;4990140;28;20117;-74
2022/09/10 03:18:58;;;;;;;25.80;9.60;;;;;;;13.55;100.00;101098.56;4991971;28;20124;-76
2022/09/10 03:21:24;;;;;;;17.50;9.25;;;;;;;13.57;100.00;101086.53;5008001;28;20029;-77
2022/09/10 03:23:51;;;;;;;22.20;9.65;;;;;;;13.55;100.00;101091.31;4991827;28;20056;-77
2022/09/10 03:26:19;;;;;;;18.20;9.75;;;;;;;13.54;100.00;101089.59;5009531;28;20041;-77
2022/09/10 03:28:45;;;;;;;23.75;11.23;;;;;;;13.55;100.00;101096.69;4988709;28;20034;-73
2022/09/10 03:31:12;;;;;;;19.52;9.65;;;;;;;13.54;100.00;101092.31;4990943;28;20045;-75
2022/09/10 03:33:38;;;;;;;22.98;9.70;;;;;;;13.58;100.00;101107.13;5006056;28;20457;-75
2022/09/10 03:36:04;;;;;;;21.98;9.50;;;;;;;13.57;100.00;101100.03;5005655;28;20038;-75
2022/09/10 03:38:31;;;;;;;22.45;9.80;;;;;;;13.57;100.00;101105.44;5010473;28;20056;-75
2022/09/10 03:40:56;;;;;;;21.13;9.40;;;;;;;13.52;100.00;101094.38;4971467;28;20040;-77
2022/09/10 03:43:22;;;;;;;22.65;11.55;;;;;;;13.54;100.00;101104.97;5008677;28;20038;-74
2022/09/10 03:45:49;;;;;;;19.98;9.45;;;;;;;13.49;100.00;101093.91;4990904;28;20123;-75
2022/09/10 03:48:16;;;;;;;20.30;9.60;;;;;;;13.58;100.00;101107.13;4989806;28;20550;-74
2022/09/10 03:50:43;;;;;;;23.25;9.85;;;;;;;13.58;100.00;101106.28;4989417;28;20132;-75
2022/09/10 03:53:13;;;;;;;25.58;11.85;;;;;;;13.60;100.00;101110.50;4981027;28;20058;-74
2022/09/10 03:55:42;;;;;;;26.92;10.93;;;;;;;13.55;100.00;101112.91;4996953;28;20108;-75
2022/09/10 03:58:07;;;;;;;22.17;11.57;;;;;;;13.56;100.00;101114.56;5009739;28;20428;-75
2022/09/10 04:00:34;;;;;;;26.45;10.73;;;;;;;13.57;100.00;101110.00;4998531;28;20021;-76
2022/09/10 04:03:00;;;;;;;28.40;10.32;;;;;;;13.59;100.00;101105.25;5005672;28;20088;-75
2022/09/10 04:05:27;;;;;;;23.38;10.82;;;;;;;13.61;100.00;101105.91;5003964;28;20096;-75
2022/09/10 04:07:53;;;;;;;29.25;10.65;;;;;;;13.60;100.00;101107.78;5003674;28;20378;-74
2022/09/10 04:10:22;;;;;;;25.90;11.00;;;;;;;13.52;100.00;101104.31;5010660;28;20518;-75
2022/09/10 04:12:48;;;;;;;22.13;10.23;;;;;;;13.47;100.00;101104.91;4994341;28;20064;-74
2022/09/10 04:15:14;;;;;;;30.05;12.05;;;;;;;13.43;100.00;101105.44;4980470;28;20403;-75
2022/09/10 04:17:40;;;;;;;24.38;11.02;;;;;;;13.36;100.00;101111.59;4995355;28;20619;-74
2022/09/10 04:20:06;;;;;;;24.30;11.18;;;;;;;13.23;100.00;101103.28;4977557;28;20658;-75
2022/09/10 04:22:33;;;;;;;32.92;11.07;;;;;;;13.22;100.00;101111.56;5010637;28;20041;-74
2022/09/10 04:24:59;;;;;;;27.23;10.25;;;;;;;13.11;100.00;101097.47;4988791;28;20129;-74
2022/09/10 04:27:25;;;;;;;26.55;10.88;;;;;;;13.15;100.00;101115.00;5006948;28;20532;-76
2022/09/10 04:29:51;;;;;;;27.30;10.65;;;;;;;13.19;100.00;101118.16;5008595;28;20056;-75
2022/09/10 04:32:17;;;;;;;23.40;11.15;;;;;;;13.21;100.00;101126.91;5005361;28;20033;-75
2022/09/10 04:34:43;;;;;;;26.35;11.52;;;;;;;13.22;100.00;101122.34;4967563;28;20049;-75
2022/09/10 04:37:09;;;;;;;23.67;11.07;;;;;;;13.26;100.00;101123.66;5009172;28;20125;-74
2022/09/10 04:39:35;;;;;;;19.45;10.32;;;;;;;13.23;100.00;101126.72;4973932;28;20080;-76
2022/09/10 04:42:01;;;;;;;27.08;10.80;;;;;;;13.22;100.00;101133.16;4976785;28;20103;-74
2022/09/10 04:44:28;;;;;;;26.45;11.55;;;;;;;13.18;100.00;101128.13;4991826;28;20033;-75
2022/09/10 04:46:54;;;;;;;21.48;11.38;;;;;;;13.16;100.00;101130.16;5003013;28;20092;-74
2022/09/10 04:49:20;;;;;;;29.73;11.27;;;;;;;13.06;100.00;101112.56;4995388;28;20116;-75
2022/09/10 04:51:46;;;;;;;16.30;8.18;;;;;;;13.02;100.00;101122.88;5008786;28;20037;-74
2022/09/10 04:54:14;;;;;;;18.50;8.77;;;;;;;12.93;100.00;101119.41;4977007;28;20117;-74
2022/09/10 04:56:40;;;;;;;28.27;11.48;;;;;;;12.75;100.00;101117.06;5006178;28;20591;-76
2022/09/10 04:59:06;;;;;;;26.35;11.10;;;;;;;12.65;100.00;101121.00;4976540;28;20026;-74
2022/09/10 05:01:31;;;;;;;23.52;10.38;;;;;;;12.50;100.00;101118.25;4971759;28;20026;-74
2022/09/10 05:03:57;;;;;;;23.63;11.38;;;;;;;12.27;100.00;101116.38;4993213;28;20066;-75
2022/09/10 05:06:25;;;;;;;23.13;10.55;;;;;;;12.22;100.00;101134.94;4993292;28;20559;-74
2022/09/10 05:08:54;;;;;;;24.08;11.13;;;;;;;12.01;100.00;101135.56;4976344;28;20026;-74
2022/09/10 05:11:20;;;;;;;24.08;10.55;;;;;;;11.88;100.00;101135.28;4989117;28;20080;-74
2022/09/10 05:13:49;;;;;;;24.60;10.73;;;;;;;11.87;100.00;101147.91;4976216;28;20042;-74
2022/09/10 05:16:14;;;;;;;30.00;11.10;;;;;;;11.90;100.00;101141.34;4986354;28;20129;-76
2022/09/10 05:18:40;;;;;;;25.55;11.65;;;;;;;11.85;100.00;101149.94;4992995;28;20501;-73
2022/09/10 05:21:06;;;;;;;32.58;12.88;;;;;;;11.82;100.00;101141.34;4988936;28;20038;-75
2022/09/10 05:23:31;;;;;;;31.50;11.65;;;;;;;12.01;100.00;101145.50;4975128;28;20289;-74
2022/09/10 05:25:57;;;;;;;31.02;11.15;;;;;;;12.09;100.00;101149.00;4992711;28;20034;-75
2022/09/10 05:28:26;;;;;;;31.80;12.07;;;;;;;12.18;100.00;101138.19;4996062;28;20381;-75
2022/09/10 05:30:52;;;;;;;36.55;12.55;;;;;;;12.22;100.00;101145.72;4993657;28;20476;-76
2022/09/10 05:33:17;;;;;;;32.10;12.98;;;;;;;12.23;100.00;101136.63;4993361;28;20038;-74
2022/09/10 05:35:43;;;;;;;35.33;12.90;;;;;;;12.30;100.00;101132.22;4983524;28;20037;-75
2022/09/10 05:38:10;;;;;;;44.50;14.07;;;;;;;12.35;100.00;101136.22;4989705;28;20096;-74
2022/09/10 05:40:36;;;;;;;31.13;12.32;;;;;;;12.36;100.00;101135.19;4989578;28;20030;-74
2022/09/10 05:43:02;;;;;;;35.42;12.48;;;;;;;12.44;100.00;101135.16;5008769;28;20108;-75
2022/09/10 05:45:28;;;;;;;34.00;13.85;;;;;;;12.52;100.00;101132.41;4996623;28;20053;-74
2022/09/10 05:47:53;;;;;;;41.47;11.57;;;;;;;12.53;100.00;101117.88;5007968;28;20034;-75
2022/09/10 05:50:19;;;;;;;35.58;13.45;;;;;;;12.48;100.00;101104.94;4979598;28;20037;-74
2022/09/10 05:52:45;;;;;;;37.45;12.80;;;;;;;12.62;100.00;101130.31;4994299;28;20030;-73
2022/09/10 05:55:11;;;;;;;35.63;13.30;;;;;;;12.60;100.00;101121.56;4990385;28;20038;-78
2022/09/10 05:57:39;;;;;;;33.75;11.98;;;;;;;12.59;100.00;101129.81;5002247;28;20030;-74
2022/09/10 06:00:08;;;;;;;43.53;14.20;;;;;;;12.52;100.00;101124.31;4977089;28;20038;-74
2022/09/10 06:02:34;;;;;;;35.38;13.20;;;;;;;12.58;100.00;101136.25;4992605;28;20038;-74
2022/09/10 06:05:00;;;;;;;35.95;13.45;;;;;;;12.59;100.00;101144.13;5007654;28;20030;-74
2022/09/10 06:07:30;;;;;;;34.97;12.98;;;;;;;12.67;100.00;101140.53;4982568;28;20030;-75
2022/09/10 06:09:59;;;;;;;33.25;12.88;;;;;;;12.63;100.00;101139.25;4973213;28;20054;-75
2022/09/10 06:12:25;;;;;;;41.03;15.15;;;;;;;12.67;100.00;101152.16;4991094;28;20034;-75
2022/09/10 06:14:51;;;;;;;32.72;12.43;;;;;;;12.60;100.00;101145.84;4990291;28;20052;-75
2022/09/10 06:17:17;;;;;;;37.22;14.00;;;;;;;12.69;100.00;101163.63;4992906;28;20053;-74
2022/09/10 06:19:43;;;;;;;23.73;10.13;;;;;;;12.66;100.00;101150.50;4980057;28;20120;-74
2022/09/10 06:22:10;;;;;;;35.92;12.70;;;;;;;12.70;100.00;101151.81;4998250;28;20084;-74
2022/09/10 06:24:36;;;;;;;36.83;14.10;;;;;;;12.71;100.00;101156.19;4978341;28;20033;-76
2022/09/10 06:27:04;;;;;;;28.00;11.18;;;;;;;12.67;100.00;101152.16;5009125;28;20973;-75
2022/09/10 06:29:29;;;;;;;35.00;13.18;;;;;;;12.60;100.00;101139.59;5014577;28;20069;-74
2022/09/10 06:31:55;;;;;;;35.15;13.07;;;;;;;12.73;100.00;101148.75;4976357;28;20034;-74
2022/09/10 06:34:21;;;;;;;37.30;14.30;;;;;;;12.82;100.00;101160.31;4997909;28;20116;-77
2022/09/10 06:36:47;;;;;;;41.10;14.73;;;;;;;12.93;100.00;101150.97;5012725;28;20034;-75
2022/09/10 06:39:13;;;;;;;28.13;12.60;;;;;;;13.02;100.00;101149.88;5006299;28;20033;-74
2022/09/10 06:41:38;;;;;;;39.28;12.85;;;;;;;13.09;100.00;101153.50;5006607;28;20096;-74
2022/09/10 06:44:04;;;;;;;37.47;13.15;;;;;;;13.12;100.00;101153.13;5014671;28;20469;-78
2022/09/10 06:46:29;;;;;;;32.97;12.18;;;;;;;13.05;100.00;101144.13;5009109;28;20031;-74
2022/09/10 06:49:01;;;;;;;37.58;14.77;;;;;;;13.15;100.00;101171.69;5008651;28;20032;-75
2022/09/10 06:51:28;;;;;;;32.88;13.38;;;;;;;13.14;100.00;101159.19;4974557;28;20133;-75
2022/09/10 06:53:54;;;;;;;33.30;13.10;;;;;;;13.20;100.00;101180.09;5020525;28;20029;-76
2022/09/10 06:56:20;;;;;;;34.58;13.02;;;;;;;13.24;100.00;101175.16;5011106;28;21015;-74
2022/09/10 06:58:45;;;;;;;30.13;12.23;;;;;;;13.15;100.00;101176.22;4979134;28;20049;-76
2022/09/10 07:01:18;;;;;;;37.28;14.05;;;;;;;13.29;100.00;101182.75;5013043;28;20117;-76
2022/09/10 07:03:45;;;;;;;31.17;12.48;;;;;;;13.40;100.00;101187.69;5008204;28;20108;-76
2022/09/10 07:06:16;;;;;;;31.45;11.77;;;;;;;13.50;100.00;101185.56;5011103;28;20045;-76
2022/09/10 07:08:42;;;;;;;34.70;13.23;;;;;;;13.48;100.00;101168.69;5019927;28;20041;-76
2022/09/10 07:11:12;;;;;;;35.22;13.77;;;;;;;13.63;100.00;101184.94;4992290;28;20129;-76
2022/09/10 07:13:38;;;;;;;35.33;15.07;;;;;;;13.64;100.00;101176.63;4978817;28;20289;-75
2022/09/10 07:16:07;;;;;;;26.88;12.13;;;;;;;13.77;100.00;101175.97;5010156;28;20030;-75
2022/09/10 07:18:34;;;;;;;18.80;8.77;;;;;;;13.84;100.00;101186.91;4991279;28;20038;-76
2022/09/10 07:21:11;;;;;;;31.05;12.80;;;;;;;13.87;100.00;101189.22;4973653;28;20085;-75
2022/09/10 07:23:39;;;;;;;29.20;12.95;;;;;;;13.94;100.00;101190.13;5007036;28;20026;-75
2022/09/10 07:26:08;;;;;;;29.05;12.90;;;;;;;14.04;100.00;101204.22;5012959;28;20053;-75
2022/09/10 07:28:35;;;;;;;28.95;12.43;;;;;;;14.14;100.00;101205.81;5011976;28;20049;-74
2022/09/10 07:31:27;;;;;;;23.75;11.45;;;;;;;14.25;100.00;101210.72;4994875;28;20502;-75
2022/09/10 07:33:54;;;;;;;25.40;12.05;;;;;;;14.25;100.00;101211.56;4985103;28;20084;-77
2022/09/10 07:36:20;;;;;;;28.88;11.23;;;;;;;14.30;100.00;101224.50;4978681;28;20172;-74
2022/09/10 07:38:46;;;;;;;20.98;9.18;;;;;;;14.33;100.00;101217.91;4978812;28;20040;-75
2022/09/10 07:41:14;;;;;;;24.75;10.48;;;;;;;14.16;100.00;101214.56;4995193;28;20121;-75
2022/09/10 07:43:41;;;;;;;21.05;10.25;;;;;;;14.14;100.00;101230.13;5008688;28;20030;-73
2022/09/10 07:46:08;;;;;;;23.60;10.80;;;;;;;14.15;100.00;101231.81;4990019;28;20037;-73
2022/09/10 07:48:34;;;;;;;21.02;9.93;;;;;;;14.13;100.00;101237.41;5002414;28;20265;-74
2022/09/10 07:51:04;;;;;;;26.27;11.13;;;;;;;14.10;100.00;101234.22;4987131;28;20040;-74
2022/09/10 07:53:30;;;;;;;24.63;10.60;;;;;;;14.06;100.00;101239.19;4987089;28;20026;-75
2022/09/10 07:56:04;;;;;;;20.20;8.57;;;;;;;14.07;100.00;101225.47;5007610;28;20040;-75
2022/09/10 07:58:31;;;;;;;25.88;9.98;;;;;;;14.17;100.00;101241.41;4988913;28;20065;-74
2022/09/10 08:00:58;;;;;;;24.35;11.30;;;;;;;14.20;100.00;101242.91;4976416;28;20037;-76
2022/09/10 08:03:25;;;;;;;22.98;10.82;;;;;;;14.27;100.00;101241.13;5001066;28;20068;-76
2022/09/10 08:05:53;;;;;;;27.67;10.32;;;;;;;14.33;100.00;101243.06;5004976;28;20046;-73
2022/09/10 08:08:20;;;;;;;24.08;10.45;;;;;;;14.37;100.00;101241.69;4992133;28;20032;-73
2022/09/10 08:10:47;;;;;;;24.63;10.18;;;;;;;14.41;100.00;101242.97;5004755;28;20412;-73
2022/09/10 08:13:13;;;;;;;24.42;11.27;;;;;;;14.42;100.00;101233.84;5003548;28;20044;-73
2022/09/10 08:15:43;;;;;;;26.58;11.07;;;;;;;14.58;100.00;101245.47;5005863;28;20040;-73
2022/09/10 08:18:11;;;;;;;24.63;11.77;;;;;;;14.76;100.00;101242.34;5014676;28;20030;-74
2022/09/10 08:20:38;;;;;;;13.27;6.35;;;;;;;15.02;100.00;101241.78;4989534;28;20365;-75
2022/09/10 08:23:04;;;;;;;18.55;8.95;;;;;;;15.13;100.00;101246.69;5008876;28;20069;-74
2022/09/10 08:25:30;;;;;;;13.57;7.28;;;;;;;15.15;100.00;101250.06;4973963;28;20080;-73
2022/09/10 08:27:56;;;;;;;22.02;10.52;;;;;;;15.15;100.00;101244.63;5000541;28;20084;-75
2022/09/10 08:30:21;;;;;;;23.10;10.57;;;;;;;15.24;100.00;101234.50;5002987;28;20044;-74
2022/09/10 08:32:47;;;;;;;23.52;10.30;;;;;;;15.35;100.00;101242.13;4988923;28;20034;-73
2022/09/10 08:35:13;;;;;;;20.90;9.63;;;;;;;15.43;100.00;101247.38;5002804;28;20041;-75
2022/09/10 08:37:39;;;;;;;19.90;10.23;;;;;;;15.37;100.00;101231.91;4972616;28;20037;-75
2022/09/10 08:40:06;;;;;;;22.08;9.75;;;;;;;15.52;100.00;101240.78;5005987;28;20045;-73
2022/09/10 08:42:42;;;;;;;23.63;9.50;;;;;;;15.60;100.00;101245.22;4977299;28;20038;-73
2022/09/10 08:45:14;;;;;;;19.77;9.02;;;;;;;15.55;100.00;101221.41;4988672;28;20065;-75
2022/09/10 08:47:48;;;;;;;19.73;9.73;;;;;;;15.74;100.00;101241.59;4998887;28;20026;-74
2022/09/10 08:50:36;;;;;;;17.25;8.57;;;;;;;15.94;100.00;101257.16;4991166;28;21350;-74
2022/09/10 08:53:24;;;;;;;21.20;8.65;;;;;;;16.00;100.00;101261.78;4989332;28;20042;-76
2022/09/10 08:55:55;;;;;;;15.77;8.38;;;;;;;15.83;100.00;101229.56;4981632;28;20049;-76
2022/09/10 08:58:28;;;;;;;20.08;8.73;;;;;;;16.23;100.00;101259.63;5024867;28;20038;-74
2022/09/10 09:00:57;;;;;;;21.08;9.00;;;;;;;16.45;100.00;101256.81;4977471;28;20038;-75
2022/09/10 09:03:36;;;;;;;19.15;8.30;;;;;;;16.66;100.00;101261.28;4985297;28;20030;-75
2022/09/10 09:06:04;;;;;;;14.52;7.18;;;;;;;16.77;100.00;101243.53;5006696;28;20081;-74
2022/09/10 09:08:35;;;;;;;12.68;6.63;;;;;;;16.95;99.99;101256.56;5008531;28;20037;-73
2022/09/10 09:11:09;;;;;;;11.02;6.20;;;;;;;16.96;98.87;101247.38;4987366;28;20377;-74
2022/09/10 09:13:41;;;;;;;8.77;5.55;;;;;;;17.04;98.47;101256.19;4995849;28;20026;-74
2022/09/10 09:16:26;;;;;;;13.25;5.95;;;;;;;17.07;96.49;101236.75;4990868;28;20400;-73
2022/09/10 09:18:59;;;;;;;11.35;5.70;;;;;;;17.62;94.55;101258.28;4990220;28;20547;-74
2022/09/10 09:21:43;;;;;;;7.80;5.30;;;;;;;17.65;92.12;101263.34;4985706;28;20033;-74
2022/09/10 09:24:39;;;;;;;13.63;6.28;;;;;;;17.61;90.17;101251.19;5021418;28;20080;-75
2022/09/10 09:27:09;;;;;;;19.00;8.43;;;;;;;17.56;89.87;101257.25;4974671;28;20092;-73
2022/09/10 09:29:43;;;;;;;20.02;8.60;;;;;;;17.41;90.36;101255.78;4992005;28;20026;-75
2022/09/10 09:32:12;;;;;;;18.30;8.10;;;;;;;17.37;91.97;101271.69;5005260;28;20439;-75
2022/09/10 09:34:53;;;;;;;15.00;6.50;;;;;;;17.42;92.79;101268.34;4971618;28;20088;-75
2022/09/10 09:37:22;;;;;;;9.57;5.25;;;;;;;17.33;91.76;101273.13;5001619;28;20081;-74
2022/09/10 09:40:12;;;;;;;14.05;7.07;;;;;;;17.22;92.46;101273.75;4986308;28;20116;-78
2022/09/10 09:42:39;;;;;;;11.18;5.78;;;;;;;17.29;92.61;101271.88;4981205;28;20478;-77
2022/09/10 09:45:36;;;;;;;21.92;10.80;;;;;;;17.39;92.41;101271.50;4989529;28;20026;-78
2022/09/10 09:48:05;;;;;;;13.50;8.57;;;;;;;17.53;92.34;101275.88;4972658;28;20134;-79
2022/09/10 09:50:34;;;;;;;10.18;6.57;;;;;;;17.65;90.62;101273.34;4990440;28;20088;-78
2022/09/10 09:52:59;;;;;;;10.00;5.95;;;;;;;17.70;90.07;101266.25;5003364;28;20034;-78
2022/09/10 09:55:30;;;;;;;8.68;5.50;;;;;;;17.74;89.10;101272.09;4993023;28;20030;-78
2022/09/10 09:58:35;;;;;;;9.55;5.63;;;;;;;17.90;88.79;101265.41;4974580;28;20033;-78
2022/09/10 10:01:03;;;;;;;10.18;5.40;;;;;;;17.88;87.22;101267.50;4915815;28;20043;-79
2022/09/10 10:03:31;;;;;;;7.63;5.22;;;;;;;17.92;88.98;101274.22;4992382;28;20061;-78
2022/09/10 10:06:05;;;;;;;11.65;5.40;;;;;;;17.98;87.45;101276.91;4987534;28;20465;-79
2022/09/10 10:08:50;;;;;;;7.85;4.90;;;;;;;18.03;88.04;101273.56;4993407;28;20199;-79
2022/09/10 10:11:18;;;;;;;12.63;6.30;;;;;;;18.05;87.50;101276.03;5003867;28;20073;-78
2022/09/10 10:13:45;;;;;;;9.52;5.28;;;;;;;17.95;86.34;101279.22;4992479;28;20437;-78
2022/09/10 10:16:20;;;;;;;8.00;5.35;;;;;;;17.69;87.19;101289.03;4971167;28;20038;-78
2022/09/10 10:18:45;;;;;;;10.85;5.70;;;;;;;17.63;88.48;101286.34;5008294;28;20026;-78
2022/09/10 10:21:11;;;;;;;9.57;5.13;;;;;;;17.72;89.73;101276.91;4993135;28;20048;-78
2022/09/10 10:23:37;;;;;;;12.98;5.85;;;;;;;17.86;89.86;101269.59;5005432;28;20074;-78
2022/09/10 10:26:17;;;;;;;11.55;6.18;;;;;;;18.06;88.26;101258.69;4990665;28;20034;-79
2022/09/10 10:29:06;;;;;;;10.10;5.50;;;;;;;18.40;85.02;101269.25;5003434;28;20409;-77
2022/09/10 10:31:40;;;;;;;9.20;6.20;;;;;;;18.38;84.83;101270.53;4967417;28;20034;-79
2022/09/10 10:35:06;;;;;;;10.05;5.95;;;;;;;18.32;84.77;101272.22;4991138;28;20519;-78
2022/09/10 10:38:12;;;;;;;8.32;5.13;;;;;;;18.28;84.38;101267.41;4889569;29;20039;-78
2022/09/10 10:40:55;;;;;;;11.45;5.90;;;;;;;18.19;84.60;101272.25;4996561;28;20040;-79
2022/09/10 10:44:10;;;;;;;10.52;6.85;;;;;;;18.12;85.84;101266.00;4993287;28;20507;-78
2022/09/10 10:46:52;;;;;;;16.75;10.10;;;;;;;18.17;85.98;101268.91;4918133;28;20119;-79
2022/09/10 10:49:18;;;;;;;;;;;;;;;18.28;85.03;101275.56;5009904;28;20041;-77
2022/09/10 10:51:50;;;;;;;10.48;6.65;;;;;;;18.43;84.88;101271.53;5008887;28;19917;-78
2022/09/10 10:54:28;;;;;;;35.65;19.77;;;;;;;18.72;83.85;101274.78;5003099;28;20065;-79
2022/09/10 10:57:08;;;;;;;19.48;8.30;;;;;;;19.19;80.10;101277.28;4987840;28;20420;-74
2022/09/10 10:59:37;;;;;;;13.30;10.00;;;;;;;19.99;75.39;101280.19;4985459;28;20066;-74
2022/09/10 11:02:25;;;;;;;11.45;7.22;;;;;;;24.17;60.62;101280.88;5005603;28;20048;-74
2022/09/10 11:04:52;;;;;;;9.02;4.47;;;;;;;22.61;59.83;101261.19;4990689;28;20068;-74
2022/09/10 11:07:38;;;;;;;11.40;7.82;;;;;;;22.79;61.02;101254.69;5007105;28;20034;-75
2022/09/10 11:10:10;;;;;;;10.85;7.65;;;;;;;22.49;61.21;101266.72;4988353;28;20044;-75
2022/09/10 11:12:49;;;;;;;10.80;6.78;;;;;;;22.67;59.91;101259.38;5014178;28;20029;-73
2022/09/10 11:15:44;;;;;;;8.60;6.32;;;;;;;22.89;61.05;101265.88;4985515;28;20691;-74
2022/09/10 11:18:37;;;;;;;13.15;9.20;;;;;;;22.92;60.59;101259.06;4993841;28;20069;-75
2022/09/10 11:21:09;;;;;;;10.68;5.28;;;;;;;23.00;60.00;101262.25;4986527;28;20506;-75